createdAt,value
2024-02-29T00:02:18.874Z,81.00
2024-02-29T00:04:47.258Z,81.25
2024-02-29T00:07:13.999Z,81.35
2024-02-29T00:09:40.911Z,81.43
2024-02-29T00:12:07.798Z,81.73
2024-02-29T00:14:34.505Z,81.60
2024-02-29T00:17:02.536Z,81.48
2024-02-29T00:19:29.400Z,81.81
2024-02-29T00:21:57.263Z,81.61
2024-02-29T00:24:23.962Z,81.62
2024-02-29T00:26:50.870Z,81.89
2024-02-29T00:29:17.677Z,82.10
2024-02-29T00:31:45.562Z,81.57
2024-02-29T00:34:15.746Z,81.93
2024-02-29T00:36:42.600Z,82.23
2024-02-29T00:39:14.632Z,82.10
2024-02-29T00:41:42.149Z,81.95
2024-02-29T00:44:08.844Z,81.81
2024-02-29T00:46:38.715Z,81.83
2024-02-29T00:49:05.715Z,82.06
2024-02-29T00:51:32.648Z,82.15
2024-02-29T00:53:59.518Z,82.29
2024-02-29T00:56:26.637Z,82.35
2024-02-29T01:01:40.443Z,82.36
2024-02-29T01:04:07.328Z,82.61
2024-02-29T01:06:34.285Z,82.58
2024-02-29T01:09:01.542Z,82.56
2024-02-29T01:11:28.341Z,82.92
2024-02-29T01:13:58.464Z,82.94
2024-02-29T01:16:25.234Z,82.87
2024-02-29T01:18:52.090Z,83.01
2024-02-29T01:21:19.255Z,83.09
2024-02-29T01:23:46.072Z,83.03
2024-02-29T01:26:13.002Z,83.10
2024-02-29T01:28:39.794Z,83.23
2024-02-29T01:31:07.218Z,83.41
2024-02-29T01:33:34.055Z,83.72
2024-02-29T01:36:01.000Z,83.61
2024-02-29T01:38:27.906Z,83.76
2024-02-29T01:40:54.934Z,83.79
2024-02-29T01:43:21.655Z,83.87
2024-02-29T01:45:58.072Z,83.77
2024-02-29T01:48:25.119Z,83.78
2024-02-29T01:50:52.170Z,83.87
2024-02-29T01:53:18.953Z,83.83
2024-02-29T01:55:45.900Z,84.08
2024-02-29T01:58:15.470Z,84.14
2024-02-29T02:00:42.651Z,84.11
2024-02-29T02:03:09.887Z,83.73
2024-02-29T02:05:36.965Z,83.83
2024-02-29T02:08:05.344Z,83.70
2024-02-29T02:10:32.108Z,83.43
2024-02-29T02:12:58.897Z,83.63
2024-02-29T02:15:25.820Z,83.23
2024-02-29T02:17:52.641Z,83.26
2024-02-29T02:20:19.718Z,83.19
2024-02-29T02:22:46.789Z,83.26
2024-02-29T02:25:13.927Z,82.99
2024-02-29T02:27:41.058Z,82.96
2024-02-29T02:30:08.551Z,83.09
2024-02-29T02:32:36.811Z,82.88
2024-02-29T02:35:08.248Z,82.83
2024-02-29T02:37:35.483Z,83.06
2024-02-29T02:40:02.578Z,82.99
2024-02-29T02:42:29.446Z,83.11
2024-02-29T02:44:56.165Z,83.02
2024-02-29T02:47:23.049Z,82.99
2024-02-29T02:49:50.141Z,83.05
2024-02-29T02:52:17.050Z,82.91
2024-02-29T02:54:43.886Z,82.84
2024-02-29T02:57:10.652Z,82.63
2024-02-29T02:59:37.466Z,82.74
2024-02-29T03:02:04.318Z,82.64
2024-02-29T03:04:31.158Z,82.46
2024-02-29T03:06:57.915Z,82.62
2024-02-29T03:09:24.711Z,82.51
2024-02-29T03:11:51.616Z,82.70
2024-02-29T03:14:18.452Z,82.58
2024-02-29T03:16:45.192Z,82.61
2024-02-29T03:19:12.002Z,82.43
2024-02-29T03:21:38.778Z,82.35
2024-02-29T03:24:05.841Z,82.46
2024-02-29T03:26:32.727Z,82.42
2024-02-29T03:29:00.101Z,82.03
2024-02-29T03:31:26.901Z,81.81
2024-02-29T03:33:53.685Z,81.58
2024-02-29T03:36:20.479Z,81.71
2024-02-29T03:38:47.391Z,81.68
2024-02-29T03:41:14.244Z,81.72
2024-02-29T03:43:41.218Z,81.55
2024-02-29T03:46:08.429Z,81.30
2024-02-29T03:48:35.238Z,81.38
2024-02-29T03:51:02.479Z,81.43
2024-02-29T03:53:29.492Z,81.58
2024-02-29T03:55:56.719Z,81.24
2024-02-29T03:58:23.680Z,81.58
2024-02-29T04:00:50.589Z,80.97
2024-02-29T04:03:17.463Z,81.26
2024-02-29T04:05:44.686Z,81.13
2024-02-29T04:08:14.416Z,81.01
2024-02-29T04:10:49.936Z,81.21
2024-02-29T04:13:18.810Z,81.12
2024-02-29T04:15:49.346Z,81.12
2024-02-29T04:18:16.730Z,81.18
2024-02-29T04:20:43.696Z,80.61
2024-02-29T04:23:10.407Z,80.64
2024-02-29T04:25:37.357Z,80.26
2024-02-29T04:28:04.636Z,80.12
2024-02-29T04:30:31.758Z,79.66
2024-02-29T04:32:58.729Z,79.62
2024-02-29T04:35:25.562Z,79.37
2024-02-29T04:37:52.277Z,79.41
2024-02-29T04:40:19.287Z,79.39
2024-02-29T04:42:46.088Z,79.38
2024-02-29T04:45:13.006Z,78.97
2024-02-29T04:47:41.341Z,78.95
2024-02-29T04:50:08.458Z,78.60
2024-02-29T04:52:35.348Z,78.47
2024-02-29T04:55:02.908Z,78.41
2024-02-29T04:57:29.822Z,78.28
2024-02-29T04:59:57.279Z,78.27
2024-02-29T05:02:24.492Z,78.50
2024-02-29T05:04:51.408Z,77.98
2024-02-29T05:07:18.473Z,77.77
2024-02-29T05:09:45.727Z,77.65
2024-02-29T05:12:12.622Z,77.81
2024-02-29T05:14:39.436Z,77.38
2024-02-29T05:17:06.840Z,77.46
2024-02-29T05:19:33.734Z,76.83
2024-02-29T05:22:00.448Z,77.11
2024-02-29T05:24:27.263Z,77.11
2024-02-29T05:26:54.027Z,76.88
2024-02-29T05:29:20.755Z,76.98
2024-02-29T05:31:53.752Z,76.98
2024-02-29T05:34:25.253Z,76.87
2024-02-29T05:36:52.308Z,76.99
2024-02-29T05:39:19.449Z,77.12
2024-02-29T05:41:46.655Z,77.34
2024-02-29T05:44:13.582Z,77.45
2024-02-29T05:46:40.307Z,77.36
2024-02-29T05:49:07.985Z,77.39
2024-02-29T05:51:34.882Z,77.60
2024-02-29T05:54:01.759Z,77.74
2024-02-29T05:56:28.614Z,77.99
2024-02-29T05:58:55.494Z,78.03
2024-02-29T06:01:23.109Z,78.18
2024-02-29T06:03:50.101Z,78.59
2024-02-29T06:06:17.249Z,78.66
2024-02-29T06:08:44.091Z,78.63
2024-02-29T06:11:15.351Z,78.88
2024-02-29T06:13:42.718Z,79.04
2024-02-29T06:16:12.110Z,79.01
2024-02-29T06:18:38.959Z,79.06
2024-02-29T06:21:09.082Z,79.26
2024-02-29T06:23:38.011Z,79.14
2024-02-29T06:26:05.197Z,79.22
2024-02-29T06:28:32.048Z,79.47
2024-02-29T06:31:09.050Z,79.24
2024-02-29T06:33:36.796Z,79.44
2024-02-29T06:36:10.279Z,79.57
2024-02-29T06:38:37.221Z,79.57
2024-02-29T06:41:09.001Z,79.56
2024-02-29T06:43:35.845Z,79.50
2024-02-29T06:46:06.896Z,79.32
2024-02-29T06:48:33.773Z,79.03
2024-02-29T06:51:00.669Z,78.42
2024-02-29T06:53:27.604Z,78.12
2024-02-29T06:55:54.311Z,78.35
2024-02-29T06:58:22.793Z,78.09
2024-02-29T07:00:50.095Z,77.72
2024-02-29T07:03:17.454Z,77.37
2024-02-29T07:05:44.472Z,76.87
2024-02-29T07:08:14.908Z,76.51
2024-02-29T07:10:42.805Z,76.09
2024-02-29T07:13:09.773Z,75.68
2024-02-29T07:15:36.892Z,75.43
2024-02-29T07:18:04.108Z,74.81
2024-02-29T07:20:30.898Z,74.69
2024-02-29T07:22:58.122Z,74.37
2024-02-29T07:25:24.997Z,74.74
2024-02-29T07:27:51.801Z,74.56
2024-02-29T07:33:40.133Z,73.65
2024-02-29T07:36:07.642Z,73.42
2024-02-29T07:38:34.572Z,73.57
2024-02-29T07:41:01.402Z,73.12
2024-02-29T07:43:28.380Z,72.67
2024-02-29T07:45:55.498Z,72.86
2024-02-29T07:48:22.364Z,72.53
2024-02-29T07:50:50.645Z,71.96
2024-02-29T07:53:18.647Z,71.27
2024-02-29T07:55:45.441Z,71.31
2024-02-29T07:58:12.417Z,70.93
2024-02-29T08:00:39.468Z,70.50
2024-02-29T08:03:06.785Z,70.59
2024-02-29T08:05:35.967Z,69.82
2024-02-29T08:08:02.770Z,69.45
2024-02-29T08:10:29.705Z,68.79
2024-02-29T08:12:56.618Z,68.43
2024-02-29T08:15:23.388Z,67.93
2024-02-29T08:17:50.167Z,67.18
2024-02-29T08:20:21.663Z,66.36
2024-02-29T08:22:55.346Z,66.11
2024-02-29T08:25:23.273Z,65.98
2024-02-29T08:27:50.259Z,66.61
2024-02-29T08:30:17.545Z,65.90
2024-02-29T08:32:44.773Z,65.76
2024-02-29T08:35:12.256Z,65.37
2024-02-29T08:37:41.443Z,65.19
2024-02-29T08:40:09.079Z,65.31
2024-02-29T08:42:36.227Z,64.63
2024-02-29T08:45:04.422Z,64.11
2024-02-29T08:47:31.383Z,63.74
2024-02-29T08:49:58.587Z,62.51
2024-02-29T08:52:26.210Z,61.84
2024-02-29T08:54:53.090Z,61.19
2024-02-29T08:57:20.683Z,62.58
2024-02-29T08:59:47.509Z,63.21
2024-02-29T09:02:14.597Z,64.22
2024-02-29T09:04:41.481Z,63.98
2024-02-29T09:07:08.360Z,63.44
2024-02-29T09:09:35.284Z,62.79
2024-02-29T09:12:02.154Z,62.38
2024-02-29T09:14:28.970Z,61.82
2024-02-29T09:16:55.845Z,61.28
2024-02-29T09:19:23.580Z,60.72
2024-02-29T09:21:50.485Z,61.74
2024-02-29T09:24:18.656Z,62.47
2024-02-29T09:26:45.462Z,61.98
2024-02-29T09:29:12.297Z,61.46
2024-02-29T09:31:39.260Z,61.85
2024-02-29T09:34:06.327Z,61.26
2024-02-29T09:36:33.202Z,61.79
2024-02-29T09:39:00.336Z,61.13
2024-02-29T09:41:41.535Z,61.18
2024-02-29T09:44:16.932Z,59.26
2024-02-29T09:46:48.243Z,59.59
2024-02-29T09:49:16.664Z,59.88
2024-02-29T09:51:45.550Z,60.12
2024-02-29T09:54:18.108Z,58.56
2024-02-29T09:56:46.906Z,59.06
2024-02-29T09:59:16.920Z,58.72
2024-02-29T10:01:46.203Z,58.54
2024-02-29T10:04:13.265Z,57.32
2024-02-29T10:06:40.293Z,58.46
2024-02-29T10:09:07.442Z,58.40
2024-02-29T10:11:34.737Z,59.93
2024-02-29T10:14:03.703Z,60.72
2024-02-29T10:16:33.060Z,61.47
2024-02-29T10:19:02.247Z,62.05
2024-02-29T10:21:34.504Z,61.36
2024-02-29T10:24:01.377Z,61.59
2024-02-29T10:26:28.400Z,61.86
2024-02-29T10:29:04.355Z,61.45
2024-02-29T10:31:31.752Z,61.14
2024-02-29T10:33:58.596Z,60.83
2024-02-29T10:36:25.505Z,60.40
2024-02-29T10:38:52.634Z,60.41
2024-02-29T10:41:21.227Z,59.57
2024-02-29T10:43:51.878Z,59.32
2024-02-29T10:46:22.391Z,58.88
2024-02-29T10:48:53.667Z,58.68
2024-02-29T10:51:29.397Z,59.78
2024-02-29T10:54:08.514Z,59.29
2024-02-29T10:56:37.494Z,59.53
2024-02-29T10:59:08.820Z,59.09
2024-02-29T11:01:38.155Z,59.36
2024-02-29T11:04:06.411Z,59.17
2024-02-29T11:06:40.180Z,58.67
2024-02-29T11:09:09.927Z,59.07
2024-02-29T11:11:36.868Z,60.04
2024-02-29T11:14:07.464Z,59.76
2024-02-29T11:16:37.593Z,59.92
2024-02-29T11:19:05.285Z,60.27
2024-02-29T11:21:32.490Z,59.80
2024-02-29T11:24:04.411Z,58.98
2024-02-29T11:26:35.698Z,58.41
2024-02-29T11:29:20.324Z,58.39
2024-02-29T11:31:51.945Z,58.84
2024-02-29T11:34:20.450Z,59.30
2024-02-29T11:36:48.690Z,59.24
2024-02-29T11:39:16.525Z,59.81
2024-02-29T11:41:43.860Z,60.26
2024-02-29T11:44:10.945Z,59.97
2024-02-29T11:46:47.973Z,60.01
2024-02-29T11:49:16.415Z,60.40
2024-02-29T11:51:45.288Z,60.29
2024-02-29T11:54:17.867Z,60.22
2024-02-29T11:56:44.818Z,60.51
2024-02-29T11:59:14.567Z,60.75
2024-02-29T12:01:45.198Z,60.58
2024-02-29T12:04:12.755Z,60.97
2024-02-29T12:06:45.741Z,60.73
2024-02-29T12:09:16.364Z,60.77
2024-02-29T12:11:45.219Z,60.93
2024-02-29T12:14:13.593Z,60.83
2024-02-29T12:16:45.264Z,61.01
2024-02-29T12:19:14.598Z,61.23
2024-02-29T12:21:41.545Z,61.32
2024-02-29T12:24:11.220Z,61.41
2024-02-29T12:26:39.636Z,61.47
2024-02-29T12:29:08.495Z,61.44
2024-02-29T12:31:35.968Z,61.74
2024-02-29T12:34:04.690Z,61.84
2024-02-29T12:36:33.369Z,62.13
2024-02-29T12:39:01.589Z,61.68
2024-02-29T12:41:28.643Z,61.58
2024-02-29T12:43:57.505Z,61.26
2024-02-29T12:46:26.337Z,61.38
2024-02-29T12:48:53.744Z,61.30
2024-02-29T12:51:20.853Z,61.10
2024-02-29T12:53:49.742Z,60.89
2024-02-29T12:56:16.766Z,60.69
2024-02-29T12:58:48.295Z,60.15
2024-02-29T13:01:16.844Z,60.00
2024-02-29T13:03:44.422Z,60.07
2024-02-29T13:06:12.818Z,60.16
2024-02-29T13:08:40.205Z,60.15
2024-02-29T13:11:07.128Z,58.51
2024-02-29T13:13:34.249Z,58.07
2024-02-29T13:16:01.486Z,58.92
2024-02-29T13:18:31.499Z,59.52
2024-02-29T13:20:58.375Z,59.42
2024-02-29T13:23:25.428Z,59.23
2024-02-29T13:25:52.514Z,59.54
2024-02-29T13:28:20.206Z,59.72
2024-02-29T13:30:47.169Z,59.91
2024-02-29T13:33:14.191Z,59.46
2024-02-29T13:35:41.256Z,58.67
2024-02-29T13:38:08.184Z,58.66
2024-02-29T13:40:35.183Z,58.46
2024-02-29T13:43:02.126Z,58.07
2024-02-29T13:45:36.636Z,58.11
2024-02-29T13:48:03.533Z,58.23
2024-02-29T13:50:30.767Z,58.93
2024-02-29T13:52:59.918Z,59.54
2024-02-29T13:55:27.163Z,58.62
2024-02-29T13:57:54.196Z,58.88
2024-02-29T14:00:22.275Z,59.16
2024-02-29T14:02:49.099Z,58.72
2024-02-29T14:05:16.908Z,58.43
2024-02-29T14:07:46.442Z,58.30
2024-02-29T14:10:15.311Z,58.14
2024-02-29T14:12:43.013Z,58.15
2024-02-29T14:15:10.072Z,57.32
2024-02-29T14:17:38.371Z,57.65
2024-02-29T14:20:07.223Z,57.85
2024-02-29T14:22:35.985Z,57.89
2024-02-29T14:25:02.954Z,58.06
2024-02-29T14:27:29.921Z,57.85
2024-02-29T14:29:58.267Z,57.94
2024-02-29T14:32:25.216Z,57.59
2024-02-29T14:34:52.007Z,57.46
2024-02-29T14:37:19.130Z,57.65
2024-02-29T14:39:47.000Z,57.37
2024-02-29T14:42:15.514Z,57.61
2024-02-29T14:44:42.408Z,57.27
2024-02-29T14:47:09.359Z,57.17
2024-02-29T14:49:36.290Z,57.24
2024-02-29T14:52:03.264Z,57.55
2024-02-29T14:54:30.317Z,57.54
2024-02-29T14:56:57.786Z,57.83
2024-02-29T14:59:24.870Z,57.44
2024-02-29T15:01:51.903Z,57.88
2024-02-29T15:04:19.845Z,57.53
2024-02-29T15:06:47.219Z,57.89
2024-02-29T15:09:16.254Z,57.91
2024-02-29T15:11:43.361Z,57.63
2024-02-29T15:14:10.148Z,57.95
2024-02-29T15:16:37.003Z,58.22
2024-02-29T15:19:04.461Z,58.54
2024-02-29T15:21:31.483Z,58.10
2024-02-29T15:23:59.343Z,58.64
2024-02-29T15:26:25.973Z,58.42
2024-02-29T15:28:53.670Z,58.42
2024-02-29T15:31:21.120Z,58.60
2024-02-29T15:33:48.050Z,58.83
2024-02-29T15:36:15.292Z,58.43
2024-02-29T15:38:42.638Z,58.59
2024-02-29T15:41:09.732Z,58.94
2024-02-29T15:43:36.626Z,58.35
2024-02-29T15:46:03.951Z,58.66
2024-02-29T15:48:30.861Z,58.81
2024-02-29T15:50:58.840Z,58.80
2024-02-29T15:53:25.834Z,59.00
2024-02-29T15:55:53.829Z,58.78
2024-02-29T15:58:20.673Z,59.10
2024-02-29T16:00:48.465Z,58.84
2024-02-29T16:03:15.451Z,58.57
2024-02-29T16:05:42.530Z,58.68
2024-02-29T16:08:09.323Z,58.47
2024-02-29T16:10:36.244Z,58.65
2024-02-29T16:13:05.694Z,58.59
2024-02-29T16:15:33.044Z,57.78
2024-02-29T16:17:59.902Z,57.41
2024-02-29T16:20:26.787Z,57.92
2024-02-29T16:22:53.687Z,57.57
2024-02-29T16:25:22.253Z,57.64
2024-02-29T16:27:49.213Z,57.95
2024-02-29T16:30:16.044Z,58.24
2024-02-29T16:32:46.514Z,58.37
2024-02-29T16:35:14.050Z,58.68
2024-02-29T16:37:41.113Z,58.84
2024-02-29T16:40:08.694Z,59.17
2024-02-29T16:42:35.819Z,59.18
2024-02-29T16:45:02.983Z,59.21
2024-02-29T16:47:30.128Z,59.43
2024-02-29T16:49:57.404Z,59.41
2024-02-29T16:52:24.285Z,59.57
2024-02-29T16:54:51.264Z,59.52
2024-02-29T16:57:18.263Z,59.76
2024-02-29T16:59:45.144Z,59.78
2024-02-29T17:02:16.441Z,59.79
2024-02-29T17:04:44.840Z,59.58
2024-02-29T17:07:12.055Z,59.73
2024-02-29T17:09:40.257Z,59.79
2024-02-29T17:12:11.797Z,60.16
2024-02-29T17:14:38.863Z,60.28
2024-02-29T17:17:07.251Z,60.53
2024-02-29T17:19:34.270Z,60.88
2024-02-29T17:22:01.309Z,60.92
2024-02-29T17:24:28.830Z,61.13
2024-02-29T17:26:55.583Z,61.18
2024-02-29T17:29:22.393Z,60.95
2024-02-29T17:31:49.178Z,61.45
2024-02-29T17:34:16.547Z,61.45
2024-02-29T17:36:43.559Z,61.61
2024-02-29T17:39:10.378Z,61.71
2024-02-29T17:41:37.252Z,61.84
2024-02-29T17:44:04.252Z,61.90
2024-02-29T17:46:31.040Z,62.06
2024-02-29T17:48:58.060Z,62.06
2024-02-29T17:51:24.994Z,61.79
2024-02-29T17:53:51.839Z,61.80
2024-02-29T17:56:19.772Z,61.31
2024-02-29T17:58:49.108Z,61.23
2024-02-29T18:01:15.789Z,61.24
2024-02-29T18:03:44.168Z,61.09
2024-02-29T18:06:10.893Z,61.34
2024-02-29T18:08:37.550Z,61.33
2024-02-29T18:11:05.065Z,61.30
2024-02-29T18:13:31.893Z,61.53
2024-02-29T18:15:58.764Z,61.49
2024-02-29T18:18:25.563Z,61.72
2024-02-29T18:20:52.198Z,61.55
2024-02-29T18:23:19.863Z,61.71
2024-02-29T18:25:47.612Z,62.29
2024-02-29T18:28:16.133Z,62.06
2024-02-29T18:30:42.944Z,62.39
2024-02-29T18:33:09.887Z,62.35
2024-02-29T18:35:39.136Z,62.45
2024-02-29T18:38:05.797Z,62.80
2024-02-29T18:40:32.921Z,62.79
2024-02-29T18:42:59.817Z,63.00
2024-02-29T18:45:26.643Z,63.25
2024-02-29T18:47:53.566Z,63.37
2024-02-29T18:50:21.203Z,63.34
2024-02-29T18:52:48.038Z,63.32
2024-02-29T18:58:40.643Z,63.34
2024-02-29T19:01:07.562Z,63.72
2024-02-29T19:03:34.454Z,63.76
2024-02-29T19:06:01.218Z,63.67
2024-02-29T19:08:28.573Z,63.62
2024-02-29T19:10:57.393Z,63.84
2024-02-29T19:13:24.701Z,63.91
2024-02-29T19:15:52.236Z,63.87
2024-02-29T19:18:19.859Z,63.75
2024-02-29T19:20:47.247Z,63.96
2024-02-29T19:23:14.171Z,64.11
2024-02-29T19:25:42.072Z,64.28
2024-02-29T19:28:08.982Z,63.91
2024-02-29T19:30:36.455Z,63.92
2024-02-29T19:33:03.447Z,64.34
2024-02-29T19:35:32.341Z,64.47
2024-02-29T19:37:59.114Z,64.67
2024-02-29T19:40:26.672Z,64.75
2024-02-29T19:42:53.572Z,64.47
2024-02-29T19:45:20.294Z,64.50
2024-02-29T19:47:49.003Z,64.94
2024-02-29T19:50:18.993Z,65.02
2024-02-29T19:52:46.312Z,65.25
2024-02-29T19:55:13.391Z,65.26
2024-02-29T19:57:41.288Z,65.37
2024-02-29T20:00:08.424Z,65.62
2024-02-29T20:02:35.372Z,65.58
2024-02-29T20:05:03.849Z,65.65
2024-02-29T20:07:31.035Z,65.98
2024-02-29T20:09:57.905Z,66.25
2024-02-29T20:12:25.579Z,66.31
2024-02-29T20:14:53.864Z,66.63
2024-02-29T20:17:21.077Z,66.78
2024-02-29T20:19:48.513Z,67.05
2024-02-29T20:22:17.730Z,67.17
2024-02-29T20:24:44.691Z,67.30
2024-02-29T20:27:11.983Z,67.59
2024-02-29T20:29:41.337Z,67.71
2024-02-29T20:32:09.810Z,68.01
2024-02-29T20:34:36.821Z,68.26
2024-02-29T20:37:03.808Z,68.48
2024-02-29T20:39:30.712Z,68.75
2024-02-29T20:41:58.080Z,69.03
2024-02-29T20:44:37.950Z,69.27
2024-02-29T20:47:05.168Z,69.65
2024-02-29T20:49:38.141Z,69.74
2024-02-29T20:52:07.904Z,70.08
2024-02-29T20:54:35.045Z,70.22
2024-02-29T20:57:06.064Z,70.56
2024-02-29T20:59:33.369Z,70.86
2024-02-29T21:02:03.009Z,71.12
2024-02-29T21:04:29.982Z,71.37
2024-02-29T21:06:56.772Z,71.53
2024-02-29T21:09:27.064Z,71.63
2024-02-29T21:11:54.302Z,71.81
2024-02-29T21:14:21.139Z,72.04
2024-02-29T21:16:48.489Z,72.17
2024-02-29T21:19:15.350Z,72.32
2024-02-29T21:21:45.962Z,72.43
2024-02-29T21:24:12.836Z,72.36
2024-02-29T21:26:39.894Z,72.56
2024-02-29T21:29:09.307Z,72.65
2024-02-29T21:31:36.261Z,72.78
2024-02-29T21:34:03.429Z,72.93
2024-02-29T21:36:32.843Z,73.06
2024-02-29T21:39:00.662Z,73.16
2024-02-29T21:41:27.436Z,73.22
2024-02-29T21:43:54.430Z,73.35
2024-02-29T21:46:22.830Z,73.63
2024-02-29T21:48:50.222Z,73.74
2024-02-29T21:51:20.402Z,74.06
2024-02-29T21:53:48.696Z,74.21
2024-02-29T21:56:15.858Z,74.27
2024-02-29T21:58:43.445Z,74.44
2024-02-29T22:01:11.148Z,74.67
2024-02-29T22:03:43.556Z,74.63
2024-02-29T22:06:10.607Z,74.83
2024-02-29T22:08:45.223Z,74.90
2024-02-29T22:11:12.369Z,75.10
2024-02-29T22:13:48.265Z,75.21
2024-02-29T22:16:15.190Z,75.32
2024-02-29T22:18:42.005Z,75.38
2024-02-29T22:21:08.744Z,75.27
2024-02-29T22:23:35.512Z,75.29
2024-02-29T22:26:02.410Z,75.14
2024-02-29T22:28:31.954Z,75.29
2024-02-29T22:30:59.403Z,75.49
2024-02-29T22:33:26.226Z,75.50
2024-02-29T22:35:53.088Z,75.36
2024-02-29T22:38:22.098Z,75.44
2024-02-29T22:40:48.987Z,75.39
2024-02-29T22:43:15.791Z,75.48
2024-02-29T22:45:43.436Z,75.45
2024-02-29T22:48:10.462Z,75.42
2024-02-29T22:50:37.269Z,75.40
2024-02-29T22:53:04.309Z,75.39
2024-02-29T22:55:31.317Z,75.36
2024-02-29T22:57:58.173Z,75.38
2024-02-29T23:00:31.811Z,75.32
2024-02-29T23:02:59.052Z,75.32
2024-02-29T23:05:26.399Z,75.32
2024-02-29T23:07:53.901Z,75.16
2024-02-29T23:10:21.227Z,75.08
2024-02-29T23:12:50.128Z,75.16
2024-02-29T23:15:18.355Z,75.16
2024-02-29T23:17:47.006Z,75.36
2024-02-29T23:20:13.852Z,75.32
2024-02-29T23:22:52.057Z,75.38
2024-02-29T23:25:21.452Z,75.45
2024-02-29T23:27:50.329Z,75.73
2024-02-29T23:30:17.343Z,75.80
2024-02-29T23:32:44.388Z,75.99
2024-02-29T23:35:11.128Z,76.19
2024-02-29T23:37:37.883Z,76.25
2024-02-29T23:40:05.732Z,76.39
2024-02-29T23:42:35.761Z,76.48
2024-02-29T23:45:02.661Z,76.78
2024-02-29T23:47:29.571Z,76.93
2024-02-29T23:49:56.485Z,76.96
2024-02-29T23:52:23.290Z,77.17
2024-02-29T23:54:51.523Z,77.25
2024-02-29T23:57:18.326Z,77.26
2024-02-29T23:59:45.130Z,77.39
